Time;durP1;ratioP1;P1;durP2;ratioP2;P2;SDS_P1;SDS_P2;PMS_P1;PMS_P2;Temp;Humidity;BMP_temperature;BMP_pressure;BME280_temperature;BME280_humidity;BME280_pressure;Samples;Min_cycle;Max_cycle;Signal;HPM_P1;HPM_P2
2021/11/07 00:00:34;;;;;;;23.95;20.67;;;10.40;99.90;;;;;;5069985;28;25083;-74
2021/11/07 00:05:38;;;;;;;22.73;20.33;;;10.40;99.90;;;;;;5079313;28;25053;-75
2021/11/07 00:10:57;;;;;;;22.33;20.05;;;10.40;99.90;;;;;;5066902;28;25051;-75
2021/11/07 00:13:25;;;;;;;24.23;20.92;;;10.40;99.90;;;;;;5075465;28;25094;-75
2021/11/07 00:15:52;;;;;;;23.17;20.45;;;10.40;99.90;;;;;;5077740;28;25065;-75
2021/11/07 00:18:25;;;;;;;24.13;19.88;;;10.50;99.90;;;;;;5070213;28;25058;-75
2021/11/07 00:20:58;;;;;;;25.60;20.38;;;10.50;99.90;;;;;;5064773;28;25055;-75
2021/11/07 00:26:09;;;;;;;22.33;19.92;;;10.50;99.90;;;;;;5072420;28;25080;-75
2021/11/07 00:28:40;;;;;;;24.35;19.63;;;10.50;99.90;;;;;;5053480;28;25126;-75
2021/11/07 00:44:07;;;;;;;34.88;19.55;;;10.70;99.90;;;;;;5064140;28;25069;-75
2021/11/07 00:47:14;;;;;;;22.00;17.02;;;10.70;99.90;;;;;;5072266;28;25160;-73
2021/11/07 00:49:33;;;;;;;28.02;19.20;;;10.70;99.90;;;;;;5069775;28;25107;-74
2021/11/07 00:54:45;;;;;;;25.23;15.27;;;10.70;99.90;;;;;;5090727;28;25047;-78
2021/11/07 00:57:21;;;;;;;23.23;14.77;;;10.70;99.90;;;;;;5095672;28;25051;-76
2021/11/07 01:00:00;;;;;;;25.42;16.50;;;10.80;99.90;;;;;;5095471;28;25092;-75
2021/11/07 01:02:32;;;;;;;29.73;16.70;;;10.80;99.90;;;;;;5085958;28;25149;-74
2021/11/07 01:05:07;;;;;;;28.75;15.93;;;10.80;99.90;;;;;;5081402;28;25053;-76
2021/11/07 01:07:36;;;;;;;25.05;14.93;;;10.80;99.90;;;;;;5076632;28;25062;-75
2021/11/07 01:10:03;;;;;;;25.25;14.95;;;10.90;99.90;;;;;;5070438;28;25113;-75
2021/11/07 01:12:29;;;;;;;24.33;14.55;;;10.90;99.90;;;;;;5054894;28;25049;-76
2021/11/07 01:14:57;;;;;;;22.55;15.05;;;11.00;99.90;;;;;;5056071;28;25057;-75
2021/11/07 01:17:23;;;;;;;31.55;14.05;;;11.00;99.90;;;;;;5069859;28;25075;-75
2021/11/07 01:19:52;;;;;;;33.05;15.07;;;11.00;99.90;;;;;;5071989;28;25081;-72
2021/11/07 01:22:23;;;;;;;26.30;14.13;;;11.10;99.90;;;;;;5072643;28;25070;-75
2021/11/07 01:25:00;;;;;;;34.65;17.35;;;11.10;99.90;;;;;;5066117;28;25047;-73
2021/11/07 01:27:34;;;;;;;33.25;18.58;;;11.10;99.90;;;;;;5068024;28;25066;-74
2021/11/07 01:30:05;;;;;;;28.33;16.90;;;11.10;99.90;;;;;;5072650;28;25069;-74
2021/11/07 01:32:38;;;;;;;28.05;16.35;;;11.10;99.90;;;;;;5071522;28;25152;-72
2021/11/07 01:35:16;;;;;;;29.80;15.88;;;11.20;99.90;;;;;;5054468;28;25050;-74
2021/11/07 01:37:54;;;;;;;34.38;17.42;;;11.20;99.90;;;;;;5072899;28;25068;-74
2021/11/07 01:40:25;;;;;;;34.13;16.38;;;11.20;99.90;;;;;;5070451;28;25157;-76
2021/11/07 01:42:58;;;;;;;41.05;16.67;;;11.20;99.90;;;;;;5069381;28;25151;-73
2021/11/07 01:45:32;;;;;;;29.80;16.75;;;11.20;99.90;;;;;;5067435;28;25161;-74
2021/11/07 01:48:08;;;;;;;33.03;15.82;;;11.20;99.90;;;;;;5068079;28;25058;-72
2021/11/07 01:50:40;;;;;;;34.80;15.80;;;11.20;99.90;;;;;;5069271;28;25069;-75
2021/11/07 01:53:17;;;;;;;45.72;16.75;;;11.20;99.90;;;;;;5074359;28;25054;-73
2021/11/07 01:55:43;;;;;;;38.30;14.85;;;11.30;99.90;;;;;;5068924;28;25126;-74
2021/11/07 01:58:11;;;;;;;39.10;14.77;;;11.30;99.90;;;;;;5072320;28;25141;-73
2021/11/07 02:00:37;;;;;;;40.45;15.77;;;11.30;99.90;;;;;;5071110;28;25102;-74
2021/11/07 02:03:03;;;;;;;33.05;13.82;;;11.40;99.90;;;;;;5070664;28;25102;-74
2021/11/07 02:05:28;;;;;;;35.38;13.52;;;11.40;99.90;;;;;;5068221;28;25098;-74
2021/11/07 02:07:55;;;;;;;34.08;13.60;;;11.40;99.90;;;;;;5070458;28;25095;-73
2021/11/07 02:10:21;;;;;;;31.77;14.35;;;11.40;99.90;;;;;;5070669;28;25158;-75
2021/11/07 02:12:47;;;;;;;38.47;14.82;;;11.40;99.90;;;;;;5046083;28;25093;-74
2021/11/07 02:15:16;;;;;;;37.33;12.65;;;11.40;99.90;;;;;;5062947;28;25083;-72
2021/11/07 02:17:44;;;;;;;32.65;14.43;;;11.40;99.90;;;;;;5058840;28;25079;-76
2021/11/07 02:20:22;;;;;;;37.42;14.38;;;11.40;99.90;;;;;;5058598;28;25055;-76
2021/11/07 02:22:48;;;;;;;31.02;12.90;;;11.30;99.90;;;;;;5060175;28;25068;-75
2021/11/07 02:25:17;;;;;;;28.92;11.70;;;11.40;99.90;;;;;;5067131;28;25068;-76
2021/11/07 02:27:43;;;;;;;24.45;10.77;;;11.40;99.90;;;;;;5067166;28;25086;-75
2021/11/07 02:30:14;;;;;;;32.67;14.57;;;11.50;99.90;;;;;;5066542;28;25045;-74
2021/11/07 02:32:44;;;;;;;35.47;14.50;;;11.50;99.90;;;;;;5065993;28;25069;-72
2021/11/07 02:35:09;;;;;;;34.33;13.55;;;11.50;99.90;;;;;;5075019;28;25166;-74
2021/11/07 02:37:36;;;;;;;31.73;13.90;;;11.50;99.90;;;;;;5066109;28;25078;-77
2021/11/07 02:40:06;;;;;;;36.83;12.90;;;11.50;99.90;;;;;;5067444;28;25082;-74
2021/11/07 02:42:32;;;;;;;36.60;14.95;;;11.50;99.90;;;;;;5066004;28;25077;-76
2021/11/07 02:44:57;;;;;;;36.53;13.85;;;11.50;99.90;;;;;;5046384;28;25062;-75
2021/11/07 02:47:23;;;;;;;28.77;13.23;;;11.50;99.90;;;;;;5060976;28;25128;-75
2021/11/07 02:49:49;;;;;;;35.10;13.80;;;11.60;99.90;;;;;;5063689;28;25061;-73
2021/11/07 02:52:15;;;;;;;30.45;12.07;;;11.60;99.90;;;;;;5066252;28;25089;-74
2021/11/07 02:54:42;;;;;;;39.45;13.68;;;11.60;99.90;;;;;;5057463;28;25055;-73
2021/11/07 02:57:12;;;;;;;30.98;12.82;;;11.60;99.90;;;;;;5069554;28;25071;-74
2021/11/07 02:59:41;;;;;;;42.10;14.05;;;11.60;99.90;;;;;;5071229;28;25066;-74
2021/11/07 03:02:09;;;;;;;26.95;11.35;;;11.60;99.90;;;;;;5065914;28;25135;-74
2021/11/07 03:04:36;;;;;;;38.95;12.68;;;11.60;99.90;;;;;;5063897;28;25152;-76
2021/11/07 03:07:03;;;;;;;29.05;11.55;;;11.60;99.90;;;;;;5073832;28;25073;-75
2021/11/07 03:09:33;;;;;;;37.25;12.52;;;11.60;99.90;;;;;;5065779;28;25086;-76
2021/11/07 03:12:00;;;;;;;42.25;12.85;;;11.60;99.90;;;;;;5064256;28;25071;-73
2021/11/07 03:14:28;;;;;;;42.80;15.23;;;11.60;99.90;;;;;;5076169;28;25059;-72
2021/11/07 03:16:55;;;;;;;40.80;12.82;;;11.60;99.90;;;;;;5064285;28;25048;-75
2021/11/07 03:19:23;;;;;;;38.67;12.48;;;11.60;99.90;;;;;;5066014;28;25150;-74
2021/11/07 03:21:51;;;;;;;38.97;13.10;;;11.70;99.90;;;;;;5066628;28;25172;-72
2021/11/07 03:24:18;;;;;;;35.95;11.38;;;11.60;99.90;;;;;;5069288;28;25062;-74
2021/11/07 03:26:45;;;;;;;35.40;11.35;;;11.60;99.90;;;;;;5067350;28;25060;-73
2021/11/07 03:29:12;;;;;;;31.10;10.32;;;11.60;99.90;;;;;;5071878;28;25085;-75
2021/11/07 03:34:18;;;;;;;30.45;10.77;;;11.60;99.90;;;;;;5067396;28;25084;-75
2021/11/07 03:36:47;;;;;;;;;;;11.70;99.90;;;;;;5064637;28;25070;-73
2021/11/07 03:39:14;;;;;;;34.65;9.77;;;11.60;99.90;;;;;;5065900;28;25048;-75
2021/11/07 03:41:44;;;;;;;22.90;7.20;;;11.60;99.90;;;;;;5063528;28;25097;-75
2021/11/07 03:44:11;;;;;;;28.55;6.88;;;11.60;99.90;;;;;;5066143;28;25046;-79
2021/11/07 03:46:38;;;;;;;23.63;6.13;;;11.50;99.90;;;;;;5068060;28;25073;-77
2021/11/07 03:49:05;;;;;;;22.15;5.70;;;11.50;99.90;;;;;;5067290;28;25085;-76
2021/11/07 03:51:31;;;;;;;23.88;5.38;;;11.60;99.90;;;;;;5069548;28;25061;-77
2021/11/07 03:53:59;;;;;;;22.20;5.75;;;11.60;99.90;;;;;;5069639;28;25097;-74
2021/11/07 03:56:26;;;;;;;18.95;4.60;;;11.50;99.90;;;;;;5070924;28;25074;-76
2021/11/07 03:58:52;;;;;;;23.25;5.70;;;11.50;99.90;;;;;;5040566;28;25059;-75
2021/11/07 04:01:19;;;;;;;26.83;5.50;;;11.60;99.90;;;;;;5059024;28;25075;-79
2021/11/07 04:03:44;;;;;;;17.65;5.22;;;11.60;99.90;;;;;;5056006;28;25069;-75
2021/11/07 04:06:12;;;;;;;22.45;5.35;;;11.50;99.90;;;;;;5073248;28;25055;-74
2021/11/07 04:08:39;;;;;;;20.52;4.80;;;11.50;99.90;;;;;;5062482;28;25050;-77
2021/11/07 04:11:05;;;;;;;22.05;4.78;;;11.40;99.90;;;;;;5068632;28;25052;-75
2021/11/07 04:13:31;;;;;;;20.80;4.22;;;11.40;99.90;;;;;;5066514;28;25127;-74
2021/11/07 04:15:59;;;;;;;18.25;4.40;;;11.30;99.90;;;;;;5062937;28;25099;-72
2021/11/07 04:18:24;;;;;;;17.80;4.00;;;11.30;99.90;;;;;;5066878;28;25075;-74
2021/11/07 04:20:50;;;;;;;20.08;4.45;;;11.30;99.90;;;;;;5064582;28;25117;-73
2021/11/07 04:23:16;;;;;;;23.38;4.68;;;11.30;99.90;;;;;;5066270;28;25087;-75
2021/11/07 04:25:42;;;;;;;16.98;4.50;;;11.20;99.90;;;;;;5059691;28;25099;-75
2021/11/07 04:28:08;;;;;;;15.68;4.57;;;11.20;99.90;;;;;;5066111;28;25053;-74
2021/11/07 04:30:34;;;;;;;18.33;4.95;;;11.20;99.90;;;;;;5066372;28;25154;-77
2021/11/07 04:33:02;;;;;;;18.70;4.47;;;11.20;99.90;;;;;;5045572;28;25072;-75
2021/11/07 04:35:30;;;;;;;18.33;4.72;;;11.10;99.90;;;;;;5069286;28;25086;-75
2021/11/07 04:37:56;;;;;;;25.10;4.32;;;11.10;99.90;;;;;;5072308;28;25167;-74
2021/11/07 04:40:25;;;;;;;21.85;3.85;;;11.00;99.90;;;;;;5076989;28;25080;-74
2021/11/07 04:42:51;;;;;;;17.25;4.13;;;11.00;99.90;;;;;;5040865;28;25163;-74
2021/11/07 04:45:17;;;;;;;17.42;4.43;;;11.00;99.90;;;;;;5071962;28;25079;-71
2021/11/07 04:47:44;;;;;;;21.27;4.07;;;11.00;99.90;;;;;;5050650;28;25130;-72
2021/11/07 04:50:12;;;;;;;19.55;3.90;;;11.00;99.90;;;;;;5051662;28;25052;-75
2021/11/07 04:52:38;;;;;;;20.92;4.50;;;11.00;99.90;;;;;;5066583;28;25072;-72
2021/11/07 04:55:06;;;;;;;19.88;4.28;;;11.00;99.90;;;;;;5072906;28;25161;-73
2021/11/07 04:57:32;;;;;;;17.33;4.50;;;11.00;99.90;;;;;;5076360;28;25078;-74
2021/11/07 04:59:58;;;;;;;15.70;4.00;;;11.00;99.90;;;;;;5068304;28;25061;-73
2021/11/07 05:02:24;;;;;;;15.32;4.10;;;11.10;99.90;;;;;;5047061;28;25128;-73
2021/11/07 05:04:54;;;;;;;17.00;4.40;;;11.10;99.90;;;;;;5067790;28;25083;-74
2021/11/07 05:07:20;;;;;;;25.10;4.88;;;11.10;99.90;;;;;;5073281;28;25058;-74
2021/11/07 05:09:46;;;;;;;19.52;4.82;;;11.00;99.90;;;;;;5067818;28;25073;-74
2021/11/07 05:12:11;;;;;;;24.67;5.18;;;11.00;99.90;;;;;;5074379;28;25069;-74
2021/11/07 05:14:38;;;;;;;18.33;5.50;;;11.00;99.90;;;;;;5063378;28;25142;-71
2021/11/07 05:17:04;;;;;;;20.13;4.82;;;11.00;99.90;;;;;;5052714;28;25150;-74
2021/11/07 05:19:30;;;;;;;24.13;5.85;;;11.10;99.90;;;;;;5072360;28;25107;-76
2021/11/07 05:21:56;;;;;;;22.35;4.85;;;11.20;99.90;;;;;;5066736;28;25074;-73
2021/11/07 05:24:22;;;;;;;20.48;5.20;;;11.20;99.90;;;;;;5071908;28;25059;-72
2021/11/07 05:26:47;;;;;;;25.23;4.63;;;11.30;99.90;;;;;;5069149;28;25072;-75
2021/11/07 05:29:13;;;;;;;22.30;4.93;;;11.20;99.90;;;;;;5070340;28;25052;-73
2021/11/07 05:31:39;;;;;;;23.13;5.18;;;11.20;99.90;;;;;;5065469;28;25517;-76
2021/11/07 05:34:05;;;;;;;21.90;4.85;;;11.20;99.90;;;;;;5044407;28;25065;-74
2021/11/07 05:36:33;;;;;;;20.60;4.55;;;11.20;99.90;;;;;;5063891;28;25062;-74
2021/11/07 05:38:58;;;;;;;25.52;5.88;;;11.30;99.90;;;;;;5068482;28;25133;-74
2021/11/07 05:41:25;;;;;;;20.38;5.28;;;11.30;99.90;;;;;;5068790;28;25075;-73
2021/11/07 05:43:50;;;;;;;24.15;6.10;;;11.30;99.90;;;;;;5052244;28;25133;-74
2021/11/07 05:46:16;;;;;;;33.42;7.18;;;11.20;99.90;;;;;;5073760;28;25150;-73
2021/11/07 05:48:42;;;;;;;25.15;5.28;;;11.10;99.90;;;;;;5068485;28;25068;-75
2021/11/07 05:51:08;;;;;;;26.30;5.07;;;11.10;99.90;;;;;;5073955;28;25062;-75
2021/11/07 05:53:34;;;;;;;24.25;6.38;;;11.10;99.90;;;;;;5066945;28;25058;-76
2021/11/07 05:56:00;;;;;;;29.83;5.88;;;11.10;99.90;;;;;;5067989;28;25069;-74
2021/11/07 05:58:27;;;;;;;21.75;5.75;;;11.00;99.90;;;;;;5073832;28;25108;-74
2021/11/07 06:00:53;;;;;;;33.42;5.55;;;11.00;99.90;;;;;;5068519;28;25068;-72
2021/11/07 06:03:20;;;;;;;25.42;5.32;;;11.00;99.90;;;;;;5052823;28;25165;-74
2021/11/07 06:05:46;;;;;;;16.17;4.10;;;11.00;99.90;;;;;;5048748;28;25070;-74
2021/11/07 06:08:13;;;;;;;21.60;5.55;;;11.00;99.90;;;;;;5065926;28;25148;-73
2021/11/07 06:10:40;;;;;;;24.10;5.53;;;10.90;99.90;;;;;;5068912;28;25061;-75
2021/11/07 06:13:07;;;;;;;26.17;5.03;;;10.90;99.90;;;;;;5064876;28;25081;-73
2021/11/07 06:15:33;;;;;;;30.25;5.05;;;10.90;99.90;;;;;;5068844;28;25079;-73
2021/11/07 06:17:58;;;;;;;26.38;4.78;;;10.80;99.90;;;;;;5067269;28;25090;-77
2021/11/07 06:20:24;;;;;;;28.30;5.43;;;10.80;99.90;;;;;;5050532;28;25056;-77
2021/11/07 06:22:50;;;;;;;22.30;5.20;;;10.70;99.90;;;;;;5069885;28;25139;-76
2021/11/07 06:25:16;;;;;;;19.50;4.28;;;10.70;99.90;;;;;;5068610;28;25130;-76
2021/11/07 06:27:42;;;;;;;27.33;5.05;;;10.60;99.90;;;;;;5070209;28;25076;-73
2021/11/07 06:30:09;;;;;;;26.30;5.05;;;10.60;99.90;;;;;;5072578;28;25079;-74
2021/11/07 06:32:36;;;;;;;19.33;4.75;;;10.60;99.90;;;;;;5070226;28;25062;-76
2021/11/07 06:35:05;;;;;;;22.08;5.18;;;10.50;99.90;;;;;;5070344;28;25174;-73
2021/11/07 06:37:30;;;;;;;33.70;5.30;;;10.50;99.90;;;;;;5067744;28;25081;-74
2021/11/07 06:39:57;;;;;;;25.60;5.68;;;10.60;99.90;;;;;;5056394;28;25069;-75
2021/11/07 06:42:23;;;;;;;22.05;4.85;;;10.60;99.90;;;;;;5082125;28;25075;-77
2021/11/07 06:44:55;;;;;;;20.75;4.28;;;10.50;99.90;;;;;;5097720;28;25082;-76
2021/11/07 06:47:21;;;;;;;22.27;5.22;;;10.50;99.90;;;;;;5097368;28;25089;-76
2021/11/07 06:49:47;;;;;;;24.98;4.90;;;10.40;99.90;;;;;;5092427;28;25083;-73
2021/11/07 06:52:14;;;;;;;20.80;4.43;;;10.50;99.90;;;;;;5074141;28;25175;-74
2021/11/07 06:54:42;;;;;;;25.75;4.50;;;10.50;99.90;;;;;;5079743;28;25084;-76
2021/11/07 06:57:08;;;;;;;25.25;5.03;;;10.50;99.90;;;;;;5093610;28;25069;-76
2021/11/07 06:59:35;;;;;;;24.73;4.57;;;10.50;99.90;;;;;;5090643;28;25056;-78
2021/11/07 07:02:00;;;;;;;27.33;5.50;;;10.50;99.90;;;;;;5089852;28;25064;-75
2021/11/07 07:04:39;;;;;;;29.08;5.65;;;10.50;99.90;;;;;;5087903;28;25153;-77
2021/11/07 07:07:05;;;;;;;30.02;4.65;;;10.50;99.90;;;;;;5084900;28;25080;-74
2021/11/07 07:09:49;;;;;;;26.60;4.78;;;10.50;99.90;;;;;;5065944;28;25093;-75
2021/11/07 07:12:29;;;;;;;28.45;4.57;;;10.50;99.90;;;;;;5083243;28;25078;-75
2021/11/07 07:15:10;;;;;;;18.42;4.55;;;10.40;99.90;;;;;;5074858;28;25106;-75
2021/11/07 07:17:50;;;;;;;27.75;6.20;;;10.40;99.90;;;;;;5083903;28;25155;-77
2021/11/07 07:23:24;;;;;;;24.23;5.40;;;10.60;99.90;;;;;;5092006;28;25052;-75
2021/11/07 07:28:51;;;;;;;19.63;4.20;;;10.50;99.90;;;;;;5073919;28;25065;-78
2021/11/07 07:34:01;;;;;;;20.80;4.07;;;10.50;99.90;;;;;;5086724;28;25055;-78
2021/11/07 07:36:27;;;;;;;31.00;5.45;;;10.40;99.90;;;;;;5081777;28;25059;-76
2021/11/07 07:38:53;;;;;;;20.05;5.30;;;10.40;99.90;;;;;;5083095;28;25143;-76
2021/11/07 07:41:19;;;;;;;26.55;5.05;;;10.40;99.90;;;;;;5061617;28;25067;-76
2021/11/07 07:43:45;;;;;;;25.10;5.35;;;10.40;99.90;;;;;;5072700;28;25102;-75
2021/11/07 07:46:12;;;;;;;24.83;5.82;;;10.40;99.90;;;;;;5078389;28;25081;-78
2021/11/07 07:48:43;;;;;;;21.80;4.70;;;10.50;99.90;;;;;;5069783;28;25043;-76
2021/11/07 07:51:15;;;;;;;25.48;5.03;;;10.60;99.90;;;;;;5073811;28;25069;-73
2021/11/07 07:53:45;;;;;;;32.23;5.07;;;10.60;99.90;;;;;;5082513;28;25063;-77
2021/11/07 07:56:11;;;;;;;34.28;4.90;;;10.60;99.90;;;;;;5072805;28;25077;-73
2021/11/07 07:58:37;;;;;;;23.58;5.93;;;10.70;99.90;;;;;;5079157;28;25063;-77
2021/11/07 08:01:07;;;;;;;32.92;4.75;;;10.70;99.90;;;;;;5072319;28;25051;-77
2021/11/07 08:03:33;;;;;;;26.13;5.15;;;10.80;99.90;;;;;;5069793;28;25103;-75
2021/11/07 08:05:59;;;;;;;19.60;4.40;;;10.90;99.90;;;;;;5042287;28;25085;-75
2021/11/07 08:08:25;;;;;;;23.65;5.03;;;11.00;99.90;;;;;;5053969;28;25099;-76
2021/11/07 08:10:51;;;;;;;20.08;4.60;;;11.00;99.90;;;;;;5082860;28;25141;-76
2021/11/07 08:13:18;;;;;;;23.45;5.25;;;11.00;99.90;;;;;;5080415;28;25135;-75
2021/11/07 08:15:44;;;;;;;22.45;4.70;;;11.00;99.90;;;;;;5077067;28;25069;-74
2021/11/07 08:18:12;;;;;;;22.83;4.40;;;11.00;99.90;;;;;;5081423;28;25142;-76
2021/11/07 08:20:38;;;;;;;23.38;4.88;;;11.00;99.90;;;;;;5079549;28;25086;-76
2021/11/07 08:23:04;;;;;;;18.58;4.60;;;11.00;99.90;;;;;;5078734;28;25052;-75
2021/11/07 08:25:36;;;;;;;20.48;4.45;;;11.00;99.90;;;;;;5071016;28;25100;-77
2021/11/07 08:28:05;;;;;;;24.13;5.18;;;11.00;99.90;;;;;;5071504;28;25068;-73
2021/11/07 08:30:34;;;;;;;27.75;4.57;;;11.00;99.90;;;;;;5074471;28;25088;-74
2021/11/07 08:33:00;;;;;;;18.15;3.97;;;11.00;99.90;;;;;;5050701;28;25053;-77
2021/11/07 08:35:27;;;;;;;17.42;3.97;;;11.10;99.90;;;;;;5053671;28;25058;-76
2021/11/07 08:38:01;;;;;;;23.85;4.95;;;11.10;99.90;;;;;;5053151;28;25067;-77
2021/11/07 08:40:31;;;;;;;22.88;6.18;;;11.00;99.90;;;;;;5072064;28;25070;-74
2021/11/07 08:43:04;;;;;;;24.08;4.75;;;11.00;99.90;;;;;;5070544;28;25080;-75
2021/11/07 09:05:13;;;;;;;22.95;4.82;;;11.30;99.90;;;;;;5054677;28;25057;-76
2021/11/07 09:07:58;;;;;;;24.10;4.72;;;11.30;99.90;;;;;;5069730;28;25059;-74
2021/11/07 09:10:27;;;;;;;23.00;5.30;;;11.50;99.90;;;;;;5057674;28;25076;-76
2021/11/07 09:12:53;;;;;;;24.88;4.50;;;11.50;99.90;;;;;;5057515;28;25142;-75
2021/11/07 09:15:23;;;;;;;22.77;4.65;;;11.50;99.90;;;;;;5052574;28;25111;-75
2021/11/07 09:17:49;;;;;;;20.17;4.50;;;11.50;99.90;;;;;;5073786;28;25062;-76
2021/11/07 09:20:21;;;;;;;23.83;4.85;;;11.50;99.90;;;;;;5080847;28;25075;-77
2021/11/07 09:22:52;;;;;;;30.35;5.60;;;11.50;99.90;;;;;;5075176;28;25086;-77
2021/11/07 09:25:23;;;;;;;22.05;3.95;;;11.40;99.90;;;;;;5054724;28;25066;-76
2021/11/07 09:28:01;;;;;;;19.40;4.75;;;11.40;99.90;;;;;;5069371;28;25053;-78
2021/11/07 09:30:38;;;;;;;22.77;4.88;;;11.40;99.90;;;;;;5074402;28;25071;-75
2021/11/07 09:38:21;;;;;;;24.23;4.97;;;11.50;99.90;;;;;;5071040;28;25131;-73
2021/11/07 09:41:05;;;;;;;28.20;4.82;;;11.50;99.90;;;;;;5070586;28;25070;-74
2021/11/07 09:43:42;;;;;;;21.77;4.80;;;11.40;99.90;;;;;;5072776;28;25056;-75
2021/11/07 09:48:42;;;;;;;28.70;5.40;;;11.50;99.90;;;;;;5071337;28;25048;-77
2021/11/07 09:51:17;;;;;;;24.55;5.55;;;11.40;99.90;;;;;;5069541;28;25057;-76
2021/11/07 09:53:46;;;;;;;28.75;4.72;;;11.40;99.90;;;;;;5069646;28;25077;-77
2021/11/07 09:56:14;;;;;;;25.92;5.45;;;11.40;99.90;;;;;;5074781;28;25125;-74
2021/11/07 09:58:49;;;;;;;26.88;5.15;;;11.40;99.90;;;;;;5071996;28;25051;-77
2021/11/07 10:01:17;;;;;;;26.65;6.00;;;11.30;99.90;;;;;;5069539;28;25155;-75
2021/11/07 10:03:44;;;;;;;35.28;6.40;;;11.30;99.90;;;;;;5071268;28;25072;-74
2021/11/07 10:06:32;;;;;;;29.35;5.28;;;11.30;99.90;;;;;;5078455;28;25075;-75
2021/11/07 10:08:59;;;;;;;22.95;4.60;;;11.30;99.90;;;;;;5077704;28;25053;-74
2021/11/07 10:11:31;;;;;;;31.63;5.00;;;11.40;99.90;;;;;;5070925;28;25080;-74
2021/11/07 10:13:58;;;;;;;;;;;11.50;99.90;;;;;;5072613;28;25066;-75
2021/11/07 10:16:42;;;;;;;25.00;4.55;;;11.60;99.90;;;;;;5073665;28;24082;-75
2021/11/07 10:19:20;;;;;;;21.92;5.55;;;11.50;99.90;;;;;;5069145;28;25175;-76
2021/11/07 10:21:49;;;;;;;25.20;4.68;;;11.40;99.90;;;;;;5073175;28;25106;-77
2021/11/07 10:24:21;;;;;;;24.70;5.22;;;11.40;99.90;;;;;;5071993;28;25152;-78
2021/11/07 10:27:12;;;;;;;22.63;5.07;;;11.40;99.90;;;;;;5074915;28;25143;-78
2021/11/07 10:29:51;;;;;;;20.17;3.83;;;11.50;99.90;;;;;;5072976;28;25058;-75
2021/11/07 10:32:29;;;;;;;23.10;4.93;;;11.80;99.90;;;;;;5076003;28;25069;-75
2021/11/07 10:38:02;;;;;;;21.08;5.20;;;12.70;99.90;;;;;;5082874;28;25109;-79
2021/11/07 10:46:18;;;;;;;23.95;4.90;;;11.80;99.90;;;;;;5079879;28;25069;-75
2021/11/07 10:54:23;;;;;;;24.75;5.43;;;11.50;99.90;;;;;;5096267;28;25089;-79
2021/11/07 10:57:15;;;;;;;24.90;4.57;;;11.50;99.90;;;;;;5093224;28;25082;-75
2021/11/07 11:03:18;;;;;;;27.65;4.68;;;11.30;99.90;;;;;;5102006;22;25105;-69
2021/11/07 11:06:09;;;;;;;31.17;5.85;;;11.30;99.90;;;;;;5066118;28;25058;-68
2021/11/07 11:08:44;;;;;;;19.45;3.95;;;11.20;99.90;;;;;;5049580;28;25073;-68
2021/11/07 11:11:31;;;;;;;24.90;5.95;;;11.20;99.90;;;;;;5062512;28;25068;-71
2021/11/07 11:14:14;;;;;;;26.98;5.22;;;11.40;99.90;;;;;;5052605;28;25059;-69
2021/11/07 11:25:25;;;;;;;25.67;6.10;;;11.50;99.90;;;;;;5037040;28;25062;-69
2021/11/07 11:28:15;;;;;;;30.63;4.70;;;11.40;99.90;;;;;;5036390;28;25173;-69
2021/11/07 11:38:39;;;;;;;32.28;5.10;;;11.30;99.90;;;;;;5041402;28;25101;-66
2021/11/07 11:41:13;;;;;;;27.73;4.82;;;11.80;99.90;;;;;;5033654;28;25072;-69
2021/11/07 11:43:44;;;;;;;28.20;5.18;;;12.20;99.90;;;;;;5030940;28;25103;-69
2021/11/07 11:46:17;;;;;;;18.77;4.68;;;12.30;99.90;;;;;;5029802;28;25072;-69
2021/11/07 11:57:41;;;;;;;24.33;6.05;;;12.50;99.90;;;;;;5034528;28;25072;-69
2021/11/07 12:00:53;;;;;;;26.88;4.82;;;12.20;99.90;;;;;;5033928;28;25099;-70
2021/11/07 12:03:40;;;;;;;25.10;5.07;;;12.00;99.90;;;;;;5041736;28;24849;-67
2021/11/07 12:06:25;;;;;;;23.10;4.50;;;11.90;99.90;;;;;;5039463;28;25096;-68
2021/11/07 12:09:11;;;;;;;24.75;5.55;;;12.00;99.90;;;;;;5034531;28;25070;-69
2021/11/07 12:11:48;;;;;;;31.88;6.15;;;12.20;99.90;;;;;;5019434;28;25061;-69
2021/11/07 12:14:26;;;;;;;26.55;5.13;;;12.20;99.90;;;;;;5022735;28;25118;-68
2021/11/07 12:17:07;;;;;;;19.55;4.22;;;12.40;99.90;;;;;;5036960;28;25066;-70
2021/11/07 12:19:39;;;;;;;23.95;5.22;;;12.50;99.90;;;;;;5040584;28;25111;-69
2021/11/07 12:22:23;;;;;;;34.28;6.25;;;12.40;99.90;;;;;;5057319;28;25068;-68
2021/11/07 12:24:49;;;;;;;32.28;5.10;;;11.90;99.90;;;;;;5041515;28;25107;-71
2021/11/07 12:27:29;;;;;;;24.20;5.43;;;11.70;99.90;;;;;;5037467;28;25129;-68
2021/11/07 12:30:03;;;;;;;25.52;5.82;;;11.60;99.90;;;;;;5024820;28;25135;-68
2021/11/07 12:32:37;;;;;;;34.40;5.97;;;11.60;99.90;;;;;;5037456;28;25054;-69
2021/11/07 12:35:18;;;;;;;28.30;5.97;;;11.50;99.90;;;;;;5040896;28;25046;-69
2021/11/07 12:40:39;;;;;;;42.30;6.38;;;11.40;99.90;;;;;;5045206;28;25076;-70
2021/11/07 12:43:08;;;;;;;30.02;6.50;;;11.40;99.90;;;;;;5046772;28;25150;-69
2021/11/07 12:45:41;;;;;;;30.40;5.50;;;11.50;99.90;;;;;;5044241;28;25049;-68
2021/11/07 12:48:09;;;;;;;34.75;6.47;;;11.50;99.90;;;;;;5039935;28;25070;-69
2021/11/07 12:50:58;;;;;;;28.55;5.68;;;11.50;99.90;;;;;;5010219;28;25050;-70
2021/11/07 12:53:27;;;;;;;26.55;5.07;;;11.40;99.90;;;;;;5038762;28;25103;-68
2021/11/07 12:55:53;;;;;;;32.33;6.47;;;11.40;99.90;;;;;;5027002;28;25083;-69
2021/11/07 12:58:19;;;;;;;29.55;5.55;;;11.50;99.90;;;;;;5046584;28;25152;-69
2021/11/07 13:00:45;;;;;;;19.70;5.22;;;11.40;99.90;;;;;;5040756;28;25073;-69
2021/11/07 13:03:14;;;;;;;31.25;6.13;;;11.40;99.90;;;;;;5042435;28;25052;-69
2021/11/07 13:05:41;;;;;;;23.30;5.53;;;11.40;99.90;;;;;;5042005;28;25087;-68
2021/11/07 13:08:12;;;;;;;34.30;6.70;;;11.50;99.90;;;;;;5021457;28;25137;-68
2021/11/07 13:10:48;;;;;;;33.50;6.78;;;11.50;99.90;;;;;;5044297;28;25117;-67
2021/11/07 13:27:13;;;;;;;29.13;5.60;;;11.50;99.90;;;;;;5041371;28;25066;-68
2021/11/07 13:32:35;;;;;;;27.70;5.60;;;11.50;99.90;;;;;;5042166;28;25080;-68
2021/11/07 13:35:22;;;;;;;35.55;7.40;;;11.50;99.90;;;;;;5048375;28;25147;-68
2021/11/07 13:37:55;;;;;;;28.67;5.40;;;11.50;99.90;;;;;;5043829;28;25063;-67
2021/11/07 13:40:29;;;;;;;23.30;5.13;;;11.50;99.90;;;;;;5029815;28;25125;-69
2021/11/07 13:43:28;;;;;;;33.20;6.43;;;11.50;99.90;;;;;;5041515;28;25107;-68
2021/11/07 13:45:55;;;;;;;35.72;5.97;;;11.40;99.90;;;;;;5039260;28;25115;-70
2021/11/07 13:48:28;;;;;;;27.55;5.32;;;11.40;99.90;;;;;;5040061;28;25078;-69
2021/11/07 13:50:54;;;;;;;27.58;5.45;;;11.40;99.90;;;;;;5043522;28;25083;-68
2021/11/07 13:53:22;;;;;;;23.50;5.65;;;11.40;99.90;;;;;;5040595;28;25046;-68
2021/11/07 13:55:59;;;;;;;23.90;5.80;;;11.50;99.90;;;;;;5047132;28;25071;-71
2021/11/07 13:58:28;;;;;;;24.70;5.13;;;11.40;99.90;;;;;;5044405;28;25070;-68
2021/11/07 14:00:58;;;;;;;38.95;5.80;;;11.40;99.90;;;;;;5040874;28;25121;-69
2021/11/07 14:03:24;;;;;;;27.95;6.03;;;11.40;99.90;;;;;;5018320;28;25086;-69
2021/11/07 14:06:23;;;;;;;28.65;6.82;;;11.40;99.90;;;;;;5032919;28;25083;-69
2021/11/07 14:09:02;;;;;;;35.05;6.30;;;11.40;99.90;;;;;;5035509;28;25139;-70
2021/11/07 14:11:29;;;;;;;32.58;6.68;;;11.40;99.90;;;;;;5039981;28;25079;-68
2021/11/07 14:13:59;;;;;;;28.75;6.07;;;11.40;99.90;;;;;;5032243;28;25050;-70
2021/11/07 14:16:33;;;;;;;30.63;6.75;;;11.40;99.90;;;;;;5037565;28;25140;-67
2021/11/07 14:19:04;;;;;;;36.45;6.10;;;11.40;99.90;;;;;;5039997;28;25059;-67
2021/11/07 14:21:31;;;;;;;31.55;6.13;;;11.40;99.90;;;;;;5016308;28;25128;-69
2021/11/07 14:29:33;;;;;;;30.85;6.22;;;11.30;99.90;;;;;;5046581;28;25065;-66
2021/11/07 14:34:45;;;;;;;35.28;6.25;;;11.40;99.90;;;;;;5042557;28;25085;-69
2021/11/07 14:37:25;;;;;;;30.40;6.25;;;11.40;99.90;;;;;;5046120;28;25123;-69
2021/11/07 14:40:21;;;;;;;38.58;7.95;;;11.40;99.90;;;;;;5023605;28;25175;-67
2021/11/07 14:43:07;;;;;;;39.08;6.68;;;11.30;99.90;;;;;;5041753;28;25111;-67
2021/11/07 14:45:42;;;;;;;36.70;5.95;;;11.30;99.90;;;;;;5028709;28;25071;-67
2021/11/07 14:53:54;;;;;;;33.25;5.85;;;11.30;99.90;;;;;;5036746;28;25081;-67
2021/11/07 14:56:48;;;;;;;30.38;6.72;;;11.30;99.90;;;;;;5038362;28;25096;-66
2021/11/07 14:59:29;;;;;;;35.53;6.22;;;11.30;99.90;;;;;;5045690;28;25068;-68
2021/11/07 15:04:48;;;;;;;26.05;5.85;;;11.30;99.90;;;;;;5042285;28;25094;-67
2021/11/07 15:07:35;;;;;;;37.65;6.85;;;11.20;99.90;;;;;;5037248;28;25083;-69
2021/11/07 15:13:07;;;;;;;29.85;6.70;;;11.10;99.90;;;;;;5044505;28;25157;-68
2021/11/07 15:15:49;;;;;;;36.53;6.63;;;11.10;99.90;;;;;;5035351;28;25077;-68
2021/11/07 15:24:35;;;;;;;34.13;6.45;;;10.90;99.90;;;;;;5038905;28;25189;-68